Time;durP1;ratioP1;P1;durP2;ratioP2;P2;SDS_P1;SDS_P2;PMS_P1;PMS_P2;Temp;Humidity;BMP_temperature;BMP_pressure;BME280_temperature;BME280_humidity;BME280_pressure;Samples;Min_cycle;Max_cycle;Signal;HPM_P1;HPM_P2
2023/10/27 00:00:19;;;;;;;0.00;0.00;;;;;;;8.38;100.00;93806.81;1030373;28;20113;-74
2023/10/27 00:00:50;;;;;;;0.00;0.00;;;;;;;8.34;100.00;93800.59;1022346;29;20026;-74
2023/10/27 00:01:20;;;;;;;0.20;0.10;;;;;;;8.35;100.00;93796.91;1025197;28;20279;-76
2023/10/27 00:01:51;;;;;;;0.20;0.20;;;;;;;8.30;100.00;93787.34;1022457;29;20319;-73
2023/10/27 00:02:21;;;;;;;0.00;0.00;;;;;;;8.31;100.00;93806.41;1022761;29;20039;-72
2023/10/27 00:02:52;;;;;;;0.52;0.52;;;;;;;8.34;100.00;93800.59;1022172;29;20027;-75
2023/10/27 00:03:22;;;;;;;0.00;0.00;;;;;;;8.36;100.00;93803.69;1018432;29;20197;-73
2023/10/27 00:03:54;;;;;;;13.95;1.98;;;;;;;8.34;100.00;93796.13;1030228;28;20058;-73
2023/10/27 00:04:24;;;;;;;0.10;0.10;;;;;;;8.33;100.00;93805.06;1022416;29;20027;-73
2023/10/27 00:04:55;;;;;;;0.20;0.20;;;;;;;8.34;100.00;93796.13;1025366;28;20286;-74
2023/10/27 00:05:25;;;;;;;1.45;1.02;;;;;;;8.35;100.00;93802.13;1026502;28;20098;-73
2023/10/27 00:05:56;;;;;;;0.00;0.00;;;;;;;8.27;100.00;93791.31;1026377;28;20031;-74
2023/10/27 00:06:27;;;;;;;0.13;0.13;;;;;;;8.37;100.00;93800.78;1018408;29;20092;-73
2023/10/27 00:06:58;;;;;;;0.10;0.10;;;;;;;8.33;100.00;93804.28;1022268;29;20016;-74
2023/10/27 00:07:29;;;;;;;0.40;0.40;;;;;;;8.32;100.00;93802.75;1022273;29;20303;-73
2023/10/27 00:07:59;;;;;;;0.10;0.10;;;;;;;8.33;100.00;93799.84;1026176;28;20497;-73
2023/10/27 00:08:30;;;;;;;0.00;0.00;;;;;;;8.34;100.00;93809.19;1018397;29;20096;-73
2023/10/27 00:09:00;;;;;;;0.30;0.30;;;;;;;8.33;100.00;93799.06;1022501;29;20284;-76
2023/10/27 00:09:32;;;;;;;0.00;0.00;;;;;;;8.34;100.00;93808.44;1018341;29;20103;-73
2023/10/27 00:10:03;;;;;;;0.32;0.32;;;;;;;8.35;100.00;93807.38;1025541;28;20086;-72
2023/10/27 00:10:37;;;;;;;0.25;0.20;;;;;;;8.36;100.00;93808.94;1022496;29;20801;-73
2023/10/27 00:11:08;;;;;;;0.00;0.00;;;;;;;8.34;100.00;93811.06;1018389;29;20032;-74
2023/10/27 00:11:38;;;;;;;0.03;0.03;;;;;;;8.33;100.00;93810.28;1018259;29;20311;-74
2023/10/27 00:12:09;;;;;;;0.00;0.00;;;;;;;8.26;100.00;93799.47;1022803;29;20391;-75
2023/10/27 00:12:39;;;;;;;0.05;0.05;;;;;;;8.25;100.00;93803.94;1027083;28;20336;-74
2023/10/27 00:13:10;;;;;;;0.93;0.93;;;;;;;8.30;100.00;93815.31;1027092;28;20565;-74
2023/10/27 00:13:40;;;;;;;0.25;0.25;;;;;;;8.32;100.00;93805.38;1019077;29;20038;-73
2023/10/27 00:14:11;;;;;;;0.93;0.30;;;;;;;8.35;100.00;93808.16;1023268;29;20101;-73
2023/10/27 00:14:41;;;;;;;0.00;0.00;;;;;;;8.32;100.00;93807.97;1023342;29;20031;-74
2023/10/27 00:15:12;;;;;;;0.30;0.30;;;;;;;8.29;100.00;93808.56;1019039;29;20035;-74
2023/10/27 00:15:42;;;;;;;0.30;0.30;;;;;;;8.31;100.00;93812.41;1027072;28;20487;-74
2023/10/27 00:16:14;;;;;;;0.00;0.00;;;;;;;8.28;100.00;93813.00;1027278;28;20106;-74
2023/10/27 00:16:45;;;;;;;0.13;0.10;;;;;;;8.24;100.00;93806.81;1015195;29;20073;-74
2023/10/27 00:17:15;;;;;;;0.38;0.25;;;;;;;8.22;100.00;93808.97;1019380;29;20310;-73
2023/10/27 00:17:46;;;;;;;0.25;0.25;;;;;;;8.20;100.00;93801.41;1027058;28;20026;-72
2023/10/27 00:18:16;;;;;;;0.10;0.10;;;;;;;8.19;100.00;93809.56;1023083;29;20043;-75
2023/10/27 00:18:47;;;;;;;1.27;0.63;;;;;;;8.20;100.00;93805.88;1019073;29;20066;-74
2023/10/27 00:19:17;;;;;;;0.20;0.20;;;;;;;8.20;100.00;93809.25;1019219;29;20127;-73
2023/10/27 00:19:48;;;;;;;0.05;0.05;;;;;;;8.16;100.00;93797.09;1026389;28;20649;-74
2023/10/27 00:20:18;;;;;;;0.22;0.22;;;;;;;8.20;100.00;93811.88;1022923;29;20352;-74
2023/10/27 00:20:49;;;;;;;0.75;0.52;;;;;;;8.18;100.00;93800.94;1027208;28;20034;-75
2023/10/27 00:21:19;;;;;;;0.00;0.00;;;;;;;8.17;100.00;93799.38;1027049;28;20062;-73
2023/10/27 00:21:50;;;;;;;0.52;0.52;;;;;;;8.18;100.00;93808.78;1027484;28;20045;-74
2023/10/27 00:22:20;;;;;;;0.25;0.25;;;;;;;8.19;100.00;93807.72;1022968;29;20131;-74
2023/10/27 00:22:51;;;;;;;0.70;0.70;;;;;;;8.19;100.00;93807.72;1019342;29;20023;-75
2023/10/27 00:23:22;;;;;;;0.30;0.30;;;;;;;8.21;100.00;93807.41;1027042;28;20069;-73
2023/10/27 00:23:52;;;;;;;0.20;0.20;;;;;;;8.21;100.00;93813.41;1019169;29;20059;-73
2023/10/27 00:24:24;;;;;;;0.40;0.40;;;;;;;8.22;100.00;93814.97;1023088;29;20275;-73
2023/10/27 00:24:54;;;;;;;0.13;0.13;;;;;;;8.22;100.00;93808.97;1023260;29;20042;-75
2023/10/27 00:25:25;;;;;;;0.10;0.10;;;;;;;8.24;100.00;93812.81;1022916;29;20282;-73
2023/10/27 00:25:55;;;;;;;0.13;0.13;;;;;;;8.20;100.00;93814.47;1023161;29;20171;-74
2023/10/27 00:26:26;;;;;;;0.00;0.00;;;;;;;8.15;100.00;93806.75;1015292;29;20135;-75
2023/10/27 00:26:56;;;;;;;0.80;0.80;;;;;;;8.19;100.00;93810.31;1017522;29;20467;-73
2023/10/27 00:27:27;;;;;;;1.55;1.25;;;;;;;8.19;100.00;93817.41;1022961;29;20544;-75
2023/10/27 00:27:57;;;;;;;0.28;0.28;;;;;;;8.20;100.00;93814.47;1027117;28;20034;-73
2023/10/27 00:28:28;;;;;;;0.77;0.77;;;;;;;8.22;100.00;93819.41;1023028;29;20027;-76
2023/10/27 00:28:59;;;;;;;0.00;0.00;;;;;;;8.21;100.00;93810.03;1019221;29;20079;-74
2023/10/27 00:29:29;;;;;;;0.00;0.00;;;;;;;8.15;100.00;93809.38;1023192;29;20330;-73
2023/10/27 00:30:00;;;;;;;0.20;0.20;;;;;;;8.21;100.00;93813.41;1018639;29;20372;-74
2023/10/27 00:30:30;;;;;;;1.02;0.20;;;;;;;8.21;100.00;93812.63;1022976;29;20034;-74
2023/10/27 00:31:01;;;;;;;0.10;0.10;;;;;;;8.20;100.00;93809.25;1019196;29;20031;-74
2023/10/27 00:31:31;;;;;;;5.82;1.17;;;;;;;8.19;100.00;93815.56;1015277;29;20562;-72
2023/10/27 00:32:02;;;;;;;0.00;0.00;;;;;;;8.19;100.00;93810.31;1019175;29;20036;-72
2023/10/27 00:32:33;;;;;;;0.10;0.10;;;;;;;8.18;100.00;93824.47;1015184;29;20040;-74
2023/10/27 00:33:03;;;;;;;0.00;0.00;;;;;;;8.13;100.00;93808.88;1023130;29;20483;-73
2023/10/27 00:33:34;;;;;;;0.00;0.00;;;;;;;8.16;100.00;93821.38;1027097;28;20056;-75
2023/10/27 00:34:04;;;;;;;0.00;0.00;;;;;;;8.18;100.00;93824.47;1023235;29;20082;-75
2023/10/27 00:34:35;;;;;;;0.38;0.38;;;;;;;8.14;100.00;93823.47;1015232;29;20139;-73
2023/10/27 00:35:06;;;;;;;0.00;0.00;;;;;;;8.13;100.00;93826.41;1027240;28;20034;-73
2023/10/27 00:35:36;;;;;;;0.25;0.20;;;;;;;8.15;100.00;93821.63;1022934;29;20086;-74
2023/10/27 00:36:07;;;;;;;0.03;0.03;;;;;;;8.15;100.00;93832.88;1023158;29;20659;-74
2023/10/27 00:36:37;;;;;;;0.50;0.38;;;;;;;8.13;100.00;93821.94;1026986;28;20047;-73
2023/10/27 00:37:08;;;;;;;0.40;0.40;;;;;;;8.06;100.00;93826.03;1018974;29;20114;-74
2023/10/27 00:37:40;;;;;;;0.00;0.00;;;;;;;8.08;100.00;93823.88;1025493;28;20111;-75
2023/10/27 00:38:10;;;;;;;0.55;0.45;;;;;;;8.07;100.00;93823.13;1026928;28;20023;-73
2023/10/27 00:38:41;;;;;;;0.65;0.63;;;;;;;8.00;100.00;93822.75;1021126;29;20663;-73
2023/10/27 00:39:11;;;;;;;0.00;0.00;;;;;;;7.97;100.00;93816.25;1027091;28;20034;-75
2023/10/27 00:39:42;;;;;;;0.30;0.30;;;;;;;7.98;100.00;93822.25;1023049;29;20558;-74
2023/10/27 00:40:12;;;;;;;0.10;0.10;;;;;;;7.92;100.00;93823.44;1022473;29;20394;-74
2023/10/27 00:40:43;;;;;;;0.65;0.40;;;;;;;7.88;100.00;93822.47;1022982;29;20030;-75
2023/10/27 00:41:14;;;;;;;0.15;0.15;;;;;;;7.84;100.00;93816.28;1019012;29;20075;-76
2023/10/27 00:41:44;;;;;;;0.10;0.10;;;;;;;7.85;100.00;93823.06;1023127;29;20031;-75
2023/10/27 00:42:15;;;;;;;0.10;0.10;;;;;;;7.80;100.00;93819.47;1026901;28;20030;-74
2023/10/27 00:42:45;;;;;;;0.00;0.00;;;;;;;7.83;100.00;93827.81;1023131;29;20400;-72
2023/10/27 00:43:16;;;;;;;0.00;0.00;;;;;;;7.74;100.00;93818.03;1019270;29;20082;-74
2023/10/27 00:43:47;;;;;;;0.38;0.38;;;;;;;7.78;100.00;93821.63;1026931;28;20054;-75
2023/10/27 00:44:17;;;;;;;0.43;0.32;;;;;;;7.77;100.00;93834.97;1019128;29;20263;-73
2023/10/27 00:44:48;;;;;;;0.00;0.00;;;;;;;7.72;100.00;93829.84;1018900;29;20059;-74
2023/10/27 00:45:18;;;;;;;0.05;0.05;;;;;;;7.71;100.00;93829.09;1019133;29;20038;-74
2023/10/27 00:45:50;;;;;;;0.95;0.65;;;;;;;7.71;100.00;93833.50;1018944;29;20031;-73
2023/10/27 00:46:20;;;;;;;1.48;0.68;;;;;;;7.71;100.00;93836.91;1015271;29;20079;-76
2023/10/27 00:46:51;;;;;;;0.10;0.10;;;;;;;7.71;100.00;93834.31;1018103;29;20359;-74
2023/10/27 00:47:23;;;;;;;0.35;0.30;;;;;;;7.73;100.00;93840.00;1026784;28;20038;-75
2023/10/27 00:47:54;;;;;;;0.00;0.00;;;;;;;7.70;100.00;93827.50;1019188;29;20629;-75
2023/10/27 00:48:24;;;;;;;0.30;0.30;;;;;;;7.67;100.00;93828.09;1031003;28;20274;-75
2023/10/27 00:48:55;;;;;;;0.10;0.10;;;;;;;7.71;100.00;93838.72;1017404;29;20084;-76
2023/10/27 00:49:27;;;;;;;0.32;0.32;;;;;;;7.70;100.00;93840.56;1019084;29;20024;-75
2023/10/27 00:49:58;;;;;;;0.45;0.45;;;;;;;7.61;100.00;93833.69;1018610;29;20075;-74
2023/10/27 00:50:28;;;;;;;0.35;0.30;;;;;;;7.67;100.00;93837.75;1022820;29;20773;-73
2023/10/27 00:50:59;;;;;;;0.10;0.10;;;;;;;7.64;100.00;93833.88;1022937;29;20023;-74
2023/10/27 00:51:30;;;;;;;0.35;0.35;;;;;;;7.58;100.00;93835.06;1019141;29;20075;-75
2023/10/27 00:52:00;;;;;;;0.00;0.00;;;;;;;7.64;100.00;93839.13;1011207;29;20732;-74
2023/10/27 00:52:31;;;;;;;0.00;0.00;;;;;;;7.60;100.00;93845.97;1011245;29;20371;-74
2023/10/27 00:53:01;;;;;;;0.00;0.00;;;;;;;7.62;100.00;93843.88;1019063;29;20023;-76
2023/10/27 00:53:32;;;;;;;0.00;0.00;;;;;;;7.64;100.00;93846.19;1019077;29;20035;-75
2023/10/27 00:54:02;;;;;;;0.10;0.10;;;;;;;7.63;100.00;93845.41;1022816;29;20024;-72
2023/10/27 00:54:33;;;;;;;0.17;0.17;;;;;;;7.62;100.00;93838.66;1023115;29;20023;-72
2023/10/27 00:55:05;;;;;;;1.55;1.45;;;;;;;7.60;100.00;93840.00;1022916;28;20019;-72
2023/10/27 00:55:36;;;;;;;0.00;0.00;;;;;;;7.55;100.00;93840.88;1019187;29;20263;-73
2023/10/27 00:56:06;;;;;;;0.00;0.00;;;;;;;7.52;100.00;93834.38;1019137;29;20263;-73
2023/10/27 00:56:37;;;;;;;0.00;0.00;;;;;;;7.51;100.00;93835.47;1019083;29;20138;-75
2023/10/27 00:57:07;;;;;;;0.00;0.00;;;;;;;7.47;100.00;93825.88;1023081;29;20454;-75
2023/10/27 00:57:38;;;;;;;0.20;0.20;;;;;;;7.56;100.00;93829.38;1022989;29;20024;-73
2023/10/27 00:58:09;;;;;;;0.00;0.00;;;;;;;7.53;100.00;93835.94;1023003;29;20430;-75
2023/10/27 00:58:39;;;;;;;0.17;0.17;;;;;;;7.47;100.00;93815.44;1026997;28;20080;-74
2023/10/27 00:59:10;;;;;;;0.00;0.00;;;;;;;7.56;100.00;93834.59;1031015;28;20025;-74
2023/10/27 00:59:41;;;;;;;0.20;0.20;;;;;;;7.59;100.00;93831.41;1033015;28;20022;-74
2023/10/27 01:00:12;;;;;;;0.00;0.00;;;;;;;7.60;100.00;93830.31;1018499;29;20101;-74
2023/10/27 01:00:43;;;;;;;0.30;0.30;;;;;;;7.56;100.00;93824.91;1023102;29;20275;-73
2023/10/27 01:01:15;;;;;;;0.00;0.00;;;;;;;7.58;100.00;93824.63;1014854;29;20020;-74
2023/10/27 01:01:45;;;;;;;0.95;0.32;;;;;;;7.63;100.00;93831.59;1027001;28;20094;-73
2023/10/27 01:02:18;;;;;;;0.73;0.45;;;;;;;7.62;100.00;93827.44;1023105;29;20330;-72
2023/10/27 01:02:49;;;;;;;0.10;0.10;;;;;;;7.61;100.00;93815.44;1023097;29;20115;-75
2023/10/27 01:03:19;;;;;;;1.00;0.28;;;;;;;7.66;100.00;93823.94;1022741;28;20279;-74
2023/10/27 01:03:50;;;;;;;0.38;0.30;;;;;;;7.65;100.00;93827.63;1023013;29;20024;-76
2023/10/27 01:04:21;;;;;;;0.00;0.00;;;;;;;7.53;100.00;93809.06;1023071;29;20019;-73
2023/10/27 01:04:52;;;;;;;0.65;0.52;;;;;;;7.62;100.00;93817.00;1018963;29;20028;-74
2023/10/27 01:05:22;;;;;;;0.35;0.35;;;;;;;7.65;100.00;93825.03;1023075;29;20299;-75
2023/10/27 01:05:53;;;;;;;0.10;0.10;;;;;;;7.60;100.00;93822.50;1015086;29;20139;-74
2023/10/27 01:06:23;;;;;;;0.00;0.00;;;;;;;7.66;100.00;93823.94;1019102;29;20057;-75
2023/10/27 01:06:54;;;;;;;0.00;0.00;;;;;;;7.66;100.00;93818.72;1023037;29;20445;-75
2023/10/27 01:07:24;;;;;;;0.00;0.00;;;;;;;7.65;100.00;93819.03;1015035;29;20032;-73
2023/10/27 01:07:55;;;;;;;0.10;0.10;;;;;;;7.64;100.00;93817.47;1015085;29;20544;-73
2023/10/27 01:08:25;;;;;;;0.00;0.00;;;;;;;7.65;100.00;93817.19;1019071;29;20557;-74
2023/10/27 01:08:56;;;;;;;0.38;0.38;;;;;;;7.65;100.00;93817.19;1023214;29;20047;-74
2023/10/27 01:09:26;;;;;;;0.05;0.05;;;;;;;7.64;100.00;93814.84;1019067;29;20023;-74
2023/10/27 01:09:57;;;;;;;0.20;0.20;;;;;;;7.63;100.00;93819.31;1014131;29;20806;-73
2023/10/27 01:10:28;;;;;;;0.08;0.08;;;;;;;7.51;100.00;93800.75;1015136;29;20064;-75
2023/10/27 01:10:58;;;;;;;0.10;0.10;;;;;;;7.57;100.00;93808.19;1015109;29;20024;-73
2023/10/27 01:11:28;;;;;;;0.63;0.47;;;;;;;7.64;100.00;93815.63;1018874;29;20482;-74
2023/10/27 01:11:59;;;;;;;0.10;0.10;;;;;;;7.57;100.00;93812.63;1019009;29;20566;-75
2023/10/27 01:12:31;;;;;;;0.08;0.08;;;;;;;7.46;100.00;93793.78;1019102;29;20080;-73
2023/10/27 01:13:02;;;;;;;0.05;0.05;;;;;;;7.56;100.00;93808.47;1019021;29;20563;-71
2023/10/27 01:13:32;;;;;;;0.52;0.10;;;;;;;7.62;100.00;93817.00;1019039;29;20351;-74
2023/10/27 01:14:03;;;;;;;0.65;0.50;;;;;;;7.61;100.00;93816.19;1022825;29;20100;-73
2023/10/27 01:14:33;;;;;;;0.00;0.00;;;;;;;7.58;100.00;93816.81;1026966;28;20126;-73
2023/10/27 01:15:04;;;;;;;0.00;0.00;;;;;;;7.59;100.00;93814.97;1026992;28;20027;-73
2023/10/27 01:15:34;;;;;;;0.00;0.00;;;;;;;7.56;100.00;93814.47;1026999;28;20078;-73
2023/10/27 01:16:05;;;;;;;0.20;0.20;;;;;;;7.53;100.00;93809.84;1022872;29;20111;-75
2023/10/27 01:16:36;;;;;;;0.00;0.00;;;;;;;7.54;100.00;93805.38;1026725;28;20034;-75
2023/10/27 01:17:06;;;;;;;2.10;0.43;;;;;;;7.55;100.00;93807.72;1023032;28;20057;-74
2023/10/27 01:17:37;;;;;;;0.57;0.50;;;;;;;7.57;100.00;93810.03;1027166;28;20397;-74
2023/10/27 01:18:07;;;;;;;0.10;0.10;;;;;;;7.53;100.00;93799.38;1030712;28;20525;-74
2023/10/27 01:18:38;;;;;;;0.00;0.00;;;;;;;7.55;100.00;93812.16;1019017;29;20036;-73
2023/10/27 01:19:08;;;;;;;0.10;0.10;;;;;;;7.52;100.00;93799.69;1023085;29;20391;-75
2023/10/27 01:19:39;;;;;;;1.60;1.15;;;;;;;7.55;100.00;93812.16;1027091;28;20038;-73
2023/10/27 01:20:10;;;;;;;6.93;0.82;;;;;;;7.57;100.00;93810.03;1016917;29;20874;-74
2023/10/27 01:20:40;;;;;;;0.15;0.15;;;;;;;7.54;100.00;93813.22;1026972;28;20461;-74
2023/10/27 01:21:11;;;;;;;7.22;2.08;;;;;;;7.55;100.00;93801.72;1014912;29;20270;-74
2023/10/27 01:21:42;;;;;;;0.00;0.00;;;;;;;7.51;100.00;93795.53;1019015;29;20067;-75
2023/10/27 01:22:15;;;;;;;0.20;0.20;;;;;;;7.54;100.00;93803.56;1018806;29;20059;-75
2023/10/27 01:22:47;;;;;;;0.05;0.05;;;;;;;7.55;100.00;93807.72;1018994;29;20299;-75
2023/10/27 01:23:17;;;;;;;0.00;0.00;;;;;;;7.54;100.00;93802.78;1014623;29;20311;-73
2023/10/27 01:23:47;;;;;;;0.00;0.00;;;;;;;7.53;100.00;93811.66;1019058;29;20272;-73
2023/10/27 01:24:18;;;;;;;0.30;0.30;;;;;;;7.54;100.00;93806.19;1026898;28;20097;-73
2023/10/27 01:24:50;;;;;;;0.20;0.20;;;;;;;7.53;100.00;93809.06;1022919;29;20137;-75
2023/10/27 01:25:21;;;;;;;0.00;0.00;;;;;;;7.54;100.00;93808.78;1026895;28;20019;-73
2023/10/27 01:25:52;;;;;;;0.80;0.80;;;;;;;7.55;100.00;93812.16;1022938;29;20274;-75
2023/10/27 01:26:22;;;;;;;0.17;0.17;;;;;;;7.56;100.00;93804.03;1014864;29;20059;-74
2023/10/27 01:26:53;;;;;;;0.10;0.10;;;;;;;7.57;100.00;93807.41;1018945;29;20055;-73
2023/10/27 01:27:23;;;;;;;0.52;0.32;;;;;;;7.52;100.00;93797.09;1026851;28;20054;-76
2023/10/27 01:27:54;;;;;;;0.25;0.25;;;;;;;7.51;100.00;93800.75;1022994;29;20035;-74
2023/10/27 01:28:24;;;;;;;0.00;0.00;;;;;;;7.59;100.00;93807.13;1022452;29;20118;-74
2023/10/27 01:28:55;;;;;;;0.00;0.00;;;;;;;7.57;100.00;93810.03;1018844;29;20158;-75
2023/10/27 01:29:28;;;;;;;0.00;0.00;;;;;;;7.59;100.00;93807.91;1019060;29;20031;-74
2023/10/27 01:29:58;;;;;;;0.17;0.17;;;;;;;7.53;100.00;93803.84;1014274;29;20419;-75
2023/10/27 01:30:29;;;;;;;0.00;0.00;;;;;;;7.60;100.00;93806.84;1014436;29;20267;-74
2023/10/27 01:30:59;;;;;;;3.10;1.48;;;;;;;7.59;100.00;93807.13;1015133;29;20079;-73
2023/10/27 01:31:30;;;;;;;0.22;0.20;;;;;;;7.60;100.00;93809.44;1019183;29;20020;-74
2023/10/27 01:32:00;;;;;;;0.73;0.73;;;;;;;7.58;100.00;93806.38;1026877;28;20035;-75
2023/10/27 01:32:31;;;;;;;0.63;0.45;;;;;;;7.53;100.00;93796.78;1018900;29;20210;-75
2023/10/27 01:33:01;;;;;;;0.00;0.00;;;;;;;7.59;100.00;93812.34;1026931;28;20210;-74
2023/10/27 01:33:32;;;;;;;0.05;0.05;;;;;;;7.61;100.00;93810.22;1017905;29;20463;-76
2023/10/27 01:34:03;;;;;;;0.00;0.00;;;;;;;7.57;100.00;93804.81;1022985;29;20588;-74
2023/10/27 01:34:33;;;;;;;4.45;0.22;;;;;;;7.59;100.00;93807.91;1030792;28;20082;-76
2023/10/27 01:35:04;;;;;;;0.00;0.00;;;;;;;7.59;100.00;93817.56;1023012;29;20079;-75
2023/10/27 01:35:35;;;;;;;2.25;1.60;;;;;;;7.54;100.00;93810.59;1023239;28;20030;-75
2023/10/27 01:36:05;;;;;;;0.00;0.00;;;;;;;7.59;100.00;93818.34;1022887;29;20466;-76
2023/10/27 01:36:36;;;;;;;0.20;0.20;;;;;;;7.57;100.00;93818.63;1015011;29;20119;-75
2023/10/27 01:37:06;;;;;;;0.47;0.47;;;;;;;7.54;100.00;93810.59;1022703;29;20550;-75
2023/10/27 01:37:37;;;;;;;0.43;0.43;;;;;;;7.59;100.00;93818.34;1021340;29;20534;-75
2023/10/27 01:38:07;;;;;;;0.20;0.20;;;;;;;7.59;100.00;93817.56;1019096;29;20019;-74
2023/10/27 01:38:38;;;;;;;0.10;0.10;;;;;;;7.58;100.00;93816.81;1025615;28;20109;-75
2023/10/27 01:39:08;;;;;;;0.25;0.22;;;;;;;7.61;100.00;93821.41;1022941;29;20439;-75
2023/10/27 01:39:39;;;;;;;0.00;0.00;;;;;;;7.62;100.00;93819.59;1014916;29;20043;-74
2023/10/27 01:40:10;;;;;;;0.00;0.00;;;;;;;7.65;100.00;93827.63;1018352;29;20032;-75
2023/10/27 01:40:40;;;;;;;0.00;0.00;;;;;;;7.64;100.00;93826.06;1018801;29;20024;-74
2023/10/27 01:41:11;;;;;;;0.00;0.00;;;;;;;7.65;100.00;93819.03;1018836;29;20071;-74
2023/10/27 01:41:41;;;;;;;0.00;0.00;;;;;;;7.64;100.00;93826.06;1018906;29;20035;-76
2023/10/27 01:42:12;;;;;;;0.05;0.05;;;;;;;7.66;100.00;93823.94;1014926;29;20115;-75
2023/10/27 01:42:42;;;;;;;1.33;0.45;;;;;;;7.63;100.00;93816.69;1022743;29;20493;-77
2023/10/27 01:43:13;;;;;;;0.00;0.00;;;;;;;7.62;100.00;93819.59;1022770;29;20067;-74
2023/10/27 01:43:43;;;;;;;0.88;0.82;;;;;;;7.66;100.00;93823.19;1018752;29;20118;-76
2023/10/27 01:44:14;;;;;;;0.70;0.65;;;;;;;7.64;100.00;93820.84;1022652;29;20499;-74
2023/10/27 01:44:44;;;;;;;0.25;0.25;;;;;;;7.65;100.00;93821.63;1022741;28;20529;-73
2023/10/27 01:45:15;;;;;;;0.20;0.20;;;;;;;7.64;100.00;93823.44;1026838;28;20035;-74
2023/10/27 01:45:45;;;;;;;0.00;0.00;;;;;;;7.66;100.00;93831.78;1030011;28;20038;-74
2023/10/27 01:46:16;;;;;;;0.35;0.32;;;;;;;7.56;100.00;93803.25;1026746;28;20228;-74
2023/10/27 01:46:46;;;;;;;0.32;0.15;;;;;;;7.64;100.00;93820.06;1018915;29;20040;-75
2023/10/27 01:47:17;;;;;;;0.10;0.10;;;;;;;7.67;100.00;93820.25;1018680;29;20119;-76
2023/10/27 01:47:47;;;;;;;0.00;0.00;;;;;;;7.66;100.00;93821.34;1018897;29;20558;-76
2023/10/27 01:48:18;;;;;;;0.98;0.63;;;;;;;7.67;100.00;93819.50;1022803;29;20126;-76
2023/10/27 01:48:48;;;;;;;0.05;0.05;;;;;;;7.68;100.00;93824.44;1014884;29;20095;-74
2023/10/27 01:49:19;;;;;;;0.00;0.00;;;;;;;7.69;100.00;93827.81;1014863;29;20115;-74
2023/10/27 01:49:50;;;;;;;0.80;0.80;;;;;;;7.66;100.00;93829.16;1022232;29;20023;-77
2023/10/27 01:50:20;;;;;;;0.00;0.00;;;;;;;7.59;100.00;93814.97;1022758;29;20217;-74
2023/10/27 01:50:51;;;;;;;0.00;0.00;;;;;;;7.62;100.00;93830.81;1014779;29;20448;-75
2023/10/27 01:51:21;;;;;;;0.00;0.00;;;;;;;7.65;100.00;93824.25;1022463;28;20032;-74
2023/10/27 01:51:51;;;;;;;0.05;0.05;;;;;;;7.64;100.00;93833.13;1022780;29;20216;-75
2023/10/27 01:52:22;;;;;;;0.10;0.10;;;;;;;7.56;100.00;93824.91;1024252;28;20109;-74
2023/10/27 01:52:52;;;;;;;0.03;0.03;;;;;;;7.58;100.00;93827.25;1022865;29;20058;-74
2023/10/27 01:53:23;;;;;;;0.00;0.00;;;;;;;7.62;100.00;93833.44;1026668;28;20031;-74
2023/10/27 01:53:53;;;;;;;0.00;0.00;;;;;;;7.49;100.00;93811.47;1026664;28;20708;-74
2023/10/27 01:54:24;;;;;;;0.00;0.00;;;;;;;7.64;100.00;93833.13;1026967;28;20133;-74
2023/10/27 01:54:55;;;;;;;0.00;0.00;;;;;;;7.64;100.00;93830.50;1026830;28;20070;-75
2023/10/27 01:55:25;;;;;;;0.10;0.10;;;;;;;7.63;100.00;93832.34;1026779;28;20194;-74
2023/10/27 01:55:56;;;;;;;0.00;0.00;;;;;;;7.60;100.00;93830.31;1026778;28;20018;-75
2023/10/27 01:56:26;;;;;;;0.25;0.25;;;;;;;7.64;100.00;93836.50;1022652;29;20510;-75
2023/10/27 01:56:57;;;;;;;0.55;0.40;;;;;;;7.64;100.00;93836.50;1022873;29;20135;-76
2023/10/27 01:57:27;;;;;;;0.10;0.10;;;;;;;7.61;100.00;93831.84;1014646;29;20120;-75
2023/10/27 01:57:58;;;;;;;0.00;0.00;;;;;;;7.62;100.00;93838.66;1026575;28;20018;-75
2023/10/27 01:58:29;;;;;;;0.47;0.47;;;;;;;7.62;100.00;93825.59;1026684;28;20474;-74
2023/10/27 01:59:00;;;;;;;0.43;0.43;;;;;;;7.61;100.00;93826.63;1010952;29;20828;-74
2023/10/27 01:59:31;;;;;;;0.80;0.43;;;;;;;7.65;100.00;93834.69;1022488;29;20271;-76
2023/10/27 02:00:03;;;;;;;0.98;0.98;;;;;;;7.68;100.00;93831.47;1030310;28;20026;-75
2023/10/27 02:00:34;;;;;;;0.30;0.30;;;;;;;7.68;100.00;93841.91;1022657;29;20263;-76
2023/10/27 02:01:04;;;;;;;0.50;0.45;;;;;;;7.57;100.00;93828.28;1015093;29;20314;-75
2023/10/27 02:01:34;;;;;;;0.57;0.52;;;;;;;7.66;100.00;93837.00;1014752;29;20020;-74
2023/10/27 02:02:05;;;;;;;0.10;0.10;;;;;;;7.66;100.00;93833.63;1014814;29;20069;-76
2023/10/27 02:02:35;;;;;;;3.08;1.35;;;;;;;7.65;100.00;93838.06;1018885;29;20067;-73
2023/10/27 02:03:06;;;;;;;0.00;0.00;;;;;;;7.67;100.00;93835.91;1014936;29;20300;-73
2023/10/27 02:03:36;;;;;;;0.32;0.30;;;;;;;7.67;100.00;93835.16;1015090;29;20031;-74
2023/10/27 02:04:07;;;;;;;0.98;0.40;;;;;;;7.66;100.00;93839.59;1014767;29;20060;-74
2023/10/27 02:04:37;;;;;;;0.57;0.40;;;;;;;7.66;100.00;93839.59;1024348;28;20608;-75
2023/10/27 02:05:09;;;;;;;0.10;0.10;;;;;;;7.65;100.00;93838.06;1026961;28;20058;-74
2023/10/27 02:05:42;;;;;;;0.30;0.22;;;;;;;7.65;100.00;93840.69;1022931;29;20035;-77
2023/10/27 02:06:13;;;;;;;0.00;0.00;;;;;;;7.63;100.00;93837.56;1018687;29;20264;-73
2023/10/27 02:06:44;;;;;;;0.00;0.00;;;;;;;7.67;100.00;93843.75;1018951;29;20279;-74
2023/10/27 02:07:15;;;;;;;0.00;0.00;;;;;;;7.63;100.00;93842.78;1018569;29;20567;-73
2023/10/27 02:07:45;;;;;;;0.00;0.00;;;;;;;7.63;100.00;93844.63;1019021;29;20128;-79
2023/10/27 02:08:17;;;;;;;1.00;0.40;;;;;;;7.64;100.00;93841.72;1026523;28;20279;-73
2023/10/27 02:08:47;;;;;;;7.68;0.45;;;;;;;7.64;100.00;93841.72;1026687;28;20367;-73
2023/10/27 02:09:18;;;;;;;0.00;0.00;;;;;;;7.60;100.00;93840.75;1022832;29;20314;-73
2023/10/27 02:09:48;;;;;;;0.85;0.20;;;;;;;7.62;100.00;93846.47;1018066;29;20031;-72
2023/10/27 02:10:19;;;;;;;0.45;0.45;;;;;;;7.60;100.00;93835.53;1010790;29;20123;-74
2023/10/27 02:10:49;;;;;;;0.00;0.00;;;;;;;7.62;100.00;93843.88;1018754;29;20016;-74
2023/10/27 02:11:20;;;;;;;7.88;1.08;;;;;;;7.60;100.00;93834.78;1018543;29;20020;-75
2023/10/27 02:11:51;;;;;;;1.30;1.27;;;;;;;7.64;100.00;93844.34;1015153;29;20024;-74
2023/10/27 02:12:21;;;;;;;0.10;0.10;;;;;;;7.63;100.00;93844.63;1014762;29;20257;-73
2023/10/27 02:12:52;;;;;;;0.10;0.10;;;;;;;7.62;100.00;93836.03;1014839;29;20107;-74
2023/10/27 02:13:22;;;;;;;0.00;0.00;;;;;;;7.64;100.00;93840.94;1022725;29;20403;-75
2023/10/27 02:13:53;;;;;;;0.10;0.10;;;;;;;7.65;100.00;93838.06;1018902;29;20051;-74
2023/10/27 02:14:25;;;;;;;0.00;0.00;;;;;;;7.66;100.00;93844.06;1022568;29;20019;-75
2023/10/27 02:14:55;;;;;;;0.10;0.10;;;;;;;7.68;100.00;93845.31;1022704;28;20042;-73
2023/10/27 02:15:26;;;;;;;0.05;0.05;;;;;;;7.67;100.00;93841.16;1014828;29;21146;-75
2023/10/27 02:15:56;;;;;;;0.40;0.40;;;;;;;7.67;100.00;93833.31;1022726;29;20058;-74
2023/10/27 02:16:27;;;;;;;0.00;0.00;;;;;;;7.72;100.00;93838.44;1026428;28;20014;-73
2023/10/27 02:16:57;;;;;;;0.10;0.10;;;;;;;7.75;100.00;93842.31;1022776;29;20130;-76
2023/10/27 02:17:28;;;;;;;0.17;0.17;;;;;;;7.71;100.00;93839.53;1026776;28;20117;-75
2023/10/27 02:17:59;;;;;;;0.10;0.10;;;;;;;7.70;100.00;93840.56;1018755;29;20134;-74
2023/10/27 02:18:29;;;;;;;0.20;0.20;;;;;;;7.72;100.00;93843.66;1019605;29;20074;-76
2023/10/27 02:19:00;;;;;;;0.85;0.45;;;;;;;7.73;100.00;93844.44;1014838;29;20043;-74
2023/10/27 02:19:30;;;;;;;0.10;0.10;;;;;;;7.74;100.00;93844.13;1018474;29;20026;-75
2023/10/27 02:20:01;;;;;;;0.10;0.10;;;;;;;7.73;100.00;93845.22;1026000;28;20317;-75
2023/10/27 02:20:31;;;;;;;0.00;0.00;;;;;;;7.71;100.00;93846.56;1026609;28;20018;-74
2023/10/27 02:21:02;;;;;;;0.65;0.65;;;;;;;7.67;100.00;93848.97;1018659;29;20028;-74
2023/10/27 02:21:32;;;;;;;0.10;0.10;;;;;;;7.72;100.00;93848.91;1018379;29;20028;-74
2023/10/27 02:22:03;;;;;;;0.20;0.20;;;;;;;7.70;100.00;93850.25;1018223;29;20062;-75
2023/10/27 02:22:33;;;;;;;0.00;0.00;;;;;;;7.69;100.00;93839.03;1018942;29;20079;-76
2023/10/27 02:23:04;;;;;;;0.77;0.75;;;;;;;7.71;100.00;93847.34;1018045;29;20019;-75
2023/10/27 02:23:34;;;;;;;0.63;0.63;;;;;;;7.72;100.00;93842.91;1019359;28;20562;-74
2023/10/27 02:24:05;;;;;;;0.47;0.47;;;;;;;7.71;100.00;93847.34;1015611;29;20027;-74
2023/10/27 02:24:39;;;;;;;0.00;0.00;;;;;;;7.72;100.00;93848.13;1019064;29;20020;-74